This is the latest recevied weather packets stored in our database for station/object W6ORV. If no packets are shown the sender has not sent any weather packets the latest 10 day(s).
| Time | Temp. | Humidity | Pressure | Rain* | Wind** | Luminosity | Snow |
|---|---|---|---|---|---|---|---|
| 1778175818 | 25° C | 50% | 4301.9 hPa | 0 mm | - | 857 W/m² | - |
| 1778175515 | 25.56° C | 51% | 4302.1 hPa | 0 mm | - | 843 W/m² | - |
| 1778175212 | 26.11° C | 49% | 4302 hPa | 0 mm | - | 838 W/m² | - |
| 1778174908 | 25° C | 53% | 4302.1 hPa | 0 mm | - | 837 W/m² | - |
| 1778174605 | 25° C | 53% | 4302.1 hPa | 0 mm | - | 817 W/m² | - |
| 1778174301 | 25.56° C | 52% | 4302.5 hPa | 0 mm | - | 823 W/m² | - |
| 1778173998 | 25° C | 54% | 4302.5 hPa | 0 mm | - | 793 W/m² | - |
| 1778173695 | 25° C | 52% | 4302.2 hPa | 0 mm | - | 796 W/m² | - |
| 1778173392 | 25° C | 54% | 4302.3 hPa | 0 mm | - | 750 W/m² | - |
| 1778173087 | 25.56° C | 52% | 4302.4 hPa | 0 mm | - | 743 W/m² | - |
| 1778172784 | 24.44° C | 54% | 4302.3 hPa | 0 mm | - | 689 W/m² | - |
| 1778172480 | 23.33° C | 56% | 4302.7 hPa | 0 mm | - | 721 W/m² | - |
| 1778172177 | 23.89° C | 54% | 4302.6 hPa | 0 mm | - | 718 W/m² | - |
| 1778171874 | 23.89° C | 56% | 4302.6 hPa | 0 mm | - | 685 W/m² | - |
| 1778171572 | 23.89° C | 56% | 4302.3 hPa | 0 mm | - | 640 W/m² | - |
| 1778171267 | 23.89° C | 57% | 4302.7 hPa | 0 mm | - | 596 W/m² | - |
| 1778170963 | 22.22° C | 61% | 4302.5 hPa | 0 mm | - | 569 W/m² | - |
| 1778170661 | 20.56° C | 65% | 4302.5 hPa | 0 mm | - | 534 W/m² | - |
| 1778170357 | 20° C | 68% | 4302.6 hPa | 0 mm | - | 488 W/m² | - |
| 1778170053 | 19.44° C | 70% | 4302.6 hPa | 0 mm | - | 494 W/m² | - |
| 1778169749 | 18.89° C | 73% | 4302.7 hPa | 0 mm | - | 453 W/m² | - |
| 1778169446 | 18.33° C | 73% | 4302.8 hPa | 0 mm | - | 410 W/m² | - |
| 1778169142 | 17.78° C | 75% | 4302.8 hPa | 0 mm | - | 353 W/m² | - |
| 1778168839 | 17.22° C | 78% | 4302.8 hPa | 0 mm | - | 361 W/m² | - |
| 1778168536 | 16.67° C | 80% | 4302.9 hPa | 0 mm | - | 333 W/m² | - |
* Rain latest hour (hover to see other rain measurements)
** Current wind speed in m/s (hover to see current wind gust speed)